Latest Weather Observations for Cairns

IDQ60801

Issued at 3:05 pm EST Monday 24 November 2014 (issued every 30 minutes, with the page automatically refreshed every 10 minutes)

About weather observations | Map of weather stations | Latest weather observations for QLD | Other Formats
Station Details ID: 031011 Name: CAIRNS AERO Lat: -16.87 Lon: 145.75 Height: 2.22 m
Data from the previous 72 hours. | See also: Recent months at Cairns
Date/Time
EST
Temp
°C
App
Temp
°C
Dew
Point
Rel
Hum
%
Delta-T
°C
Wind Press
QNH
hPa
Press
MSL
hPa
Rain
since 9 am
mm
Dir
 
Spd
km/h
Gust
km/h
Spd
kts
Gust
kts
24/03:00pm 30.6 30.9 21.5 58 6.1 NE 22 35 12 19 1010.9 1010.8 0.0
24/02:30pm 30.5 29.9 21.9 60 5.8 ENE 28 35 15 19 1011.0 - 0.0
24/02:00pm 30.4 30.1 22.6 63 5.3 ENE 28 35 15 19 1011.1 - 0.0
24/01:30pm 31.2 30.3 22.2 58 6.1 ENE 30 39 16 21 1011.5 - 0.0
24/01:00pm 31.4 30.4 21.3 55 6.8 NE 28 33 15 18 1011.8 - 0.0
24/12:30pm 32.5 31.2 20.7 49 7.9 NE 28 35 15 19 1012.1 - 0.0
24/12:00pm 31.7 31.0 20.2 50 7.6 E 24 32 13 17 1012.3 1012.2 0.0
24/11:30am 31.2 32.2 20.2 52 7.3 E 15 24 8 13 1012.6 - 0.0
24/11:00am 31.5 31.2 19.6 49 7.8 E 20 28 11 15 1012.9 - 0.0
24/10:30am 30.5 30.2 20.4 54 6.7 E 22 32 12 17 1013.2 - 0.0
24/10:00am 31.3 30.7 20.5 52 7.2 E 24 28 13 15 1013.5 - 0.0
24/09:30am 30.3 31.4 21.2 58 6.1 SE 17 28 9 15 1013.5 - 0.0
24/09:00am 30.1 32.3 21.8 61 5.6 E 13 19 7 10 1013.5 1013.4 0.0
24/08:30am 28.0 30.1 21.7 68 4.2 SSE 13 19 7 10 1013.6 - 0.0
24/08:00am 28.4 29.7 21.7 67 4.5 SSE 17 22 9 12 1013.3 - 0.0
24/07:30am 27.0 29.2 21.8 73 3.5 SSE 13 19 7 10 1013.0 - 0.0
24/07:00am 26.8 28.4 21.5 72 3.5 SSE 15 20 8 11 1012.8 - 0.0
24/06:30am 26.2 27.9 21.7 76 3.0 SE 15 19 8 10 1012.6 - 0.0
24/06:00am 25.2 27.2 21.6 80 2.4 S 13 19 7 10 1012.1 1012.0 0.0
24/05:30am 25.1 27.0 21.3 79 2.5 S 13 19 7 10 1011.9 - 0.0
24/05:00am 25.3 27.7 21.5 79 2.5 S 11 15 6 8 1011.9 - 0.0
24/04:30am 25.3 27.7 21.5 79 2.5 S 11 17 6 9 1011.9 - 0.0
24/04:00am 25.1 27.5 21.6 81 2.3 S 11 15 6 8 1012.0 - 0.0
24/03:30am 25.2 28.0 21.6 80 2.4 S 9 13 5 7 1012.4 - 0.0
24/03:00am 25.0 27.5 21.7 82 2.2 SE 11 15 6 8 1012.4 1012.3 0.0
24/02:30am 25.4 27.9 21.8 80 2.4 S 11 17 6 9 1012.5 - 0.0
24/02:00am 25.3 27.8 21.8 81 2.3 S 11 15 6 8 1012.5 - 0.0
24/01:30am 25.2 27.7 21.7 81 2.3 SSE 11 13 6 7 1012.5 - 0.0
24/01:01am 25.5 28.5 21.9 80 2.4 S 9 15 5 8 1012.9 - 0.0
24/12:30am 25.5 28.4 21.7 79 2.5 SSE 9 13 5 7 1013.6 - 0.0
24/12:00am 25.6 28.5 21.7 79 2.6 SSE 9 15 5 8 1014.0 1013.9 0.0
 
Date/Time
EST
Temp
°C
App
Temp
°C
Dew
Point
Rel
Hum
%
Delta-T
°C
Wind Press
QNH
hPa
Press
MSL
hPa
Rain
since 9 am
mm
Dir
 
Spd
km/h
Gust
km/h
Spd
kts
Gust
kts
23/11:30pm 25.5 28.5 21.9 80 2.4 SSE 9 11 5 6 1014.3 - 0.0
23/11:00pm 26.1 29.4 21.9 77 2.8 S 7 11 4 6 1014.4 - 0.0
23/10:30pm 25.8 29.4 22.1 80 2.5 S 6 9 3 5 1014.5 - 0.0
23/10:00pm 26.1 29.2 21.4 75 3.1 S 7 9 4 5 1014.5 - 0.0
23/09:30pm 26.1 29.2 21.4 75 3.1 SSE 7 11 4 6 1014.0 - 0.0
23/09:00pm 26.3 29.3 21.2 73 3.4 S 7 11 4 6 1013.9 1013.8 0.0
23/08:30pm 26.4 29.1 21.4 74 3.3 S 9 15 5 8 1013.8 - 0.0
23/08:00pm 26.4 29.5 21.4 74 3.3 S 7 11 4 6 1013.5 - 0.0
23/07:30pm 26.8 29.1 20.7 69 4.0 SSW 9 13 5 7 1013.1 - 0.0
23/06:30pm 27.6 27.9 20.8 66 4.5 ESE 20 28 11 15 1012.2 - 0.0
23/06:00pm 28.1 28.0 20.7 64 4.9 ESE 22 30 12 16 1011.9 1011.8 0.0
23/05:30pm 29.0 29.2 20.2 59 5.8 E 19 26 10 14 1011.8 - 0.0
23/05:00pm 29.9 29.0 19.8 54 6.6 E 24 32 13 17 1011.6 - 0.0
23/04:30pm 30.2 29.2 19.7 53 6.9 E 24 32 13 17 1011.5 - 0.0
23/04:00pm 31.3 29.6 19.9 50 7.5 E 28 33 15 18 1011.5 - 0.0
23/03:30pm 31.3 29.9 19.6 49 7.7 E 26 33 14 18 1011.6 - 0.0
23/03:00pm 31.8 30.1 19.8 49 7.9 E 28 33 15 18 1011.9 1011.8 0.0
23/02:30pm 31.3 29.9 20.5 52 7.2 NE 28 33 15 18 1012.1 - 0.0
23/02:00pm 31.7 30.5 20.1 50 7.7 E 26 37 14 20 1012.3 - 0.0
23/01:30pm 32.7 31.5 20.9 49 7.9 ENE 28 32 15 17 1012.7 - 0.0
23/01:00pm 32.1 31.3 20.0 48 8.0 ENE 24 32 13 17 1013.1 - 0.0
23/12:30pm 31.6 30.3 19.8 49 7.8 ENE 26 35 14 19 1013.4 - 0.0
23/12:00pm 31.5 31.3 21.2 54 6.9 NE 24 30 13 16 1013.8 1013.7 0.0
23/11:30am 30.6 31.0 21.7 59 6.0 NE 22 28 12 15 1014.3 - 0.0
23/11:00am 31.3 31.9 21.3 55 6.7 NE 20 28 11 15 1014.6 - 0.0
23/10:30am 31.0 32.5 21.3 56 6.5 ENE 15 24 8 13 1014.9 - 0.0
23/10:00am 30.9 32.8 20.5 54 6.9 NE 11 15 6 8 1015.0 - 0.0
23/09:30am 29.4 30.8 20.3 58 6.0 E 13 17 7 9 1015.0 - 0.0
23/09:00am 29.9 31.5 20.7 57 6.1 SE 13 19 7 10 1014.9 1014.8 0.0
23/08:30am 28.5 30.0 20.6 62 5.2 SSE 13 19 7 10 1014.9 - 0.0
23/08:00am 27.8 28.9 20.5 64 4.8 SSE 15 24 8 13 1014.8 - 0.0
23/07:30am 27.7 29.0 20.2 63 4.9 SSE 13 17 7 9 1014.5 - 0.0
23/07:00am 27.1 29.1 20.0 65 4.6 SSE 9 17 5 9 1014.1 - 0.0
23/06:30am 24.4 27.6 20.4 78 2.6 NNW 4 7 2 4 1014.0 - 0.0
23/06:00am 24.2 26.1 19.7 76 2.9 SSE 9 13 5 7 1013.6 1013.5 0.0
23/05:30am 23.2 24.4 19.9 82 2.1 SSE 13 19 7 10 1013.0 - 0.0
23/05:00am 23.4 24.4 20.2 82 2.1 SE 15 19 8 10 1012.8 - 0.0
23/04:30am 23.5 25.0 20.6 84 1.9 SE 13 19 7 10 1012.7 - 0.0
23/04:00am 23.6 25.2 20.7 84 1.9 SE 13 15 7 8 1012.5 - 0.0
23/03:30am 23.5 25.4 20.6 84 1.9 SE 11 15 6 8 1012.6 - 0.0
23/03:00am 24.1 26.0 20.6 81 2.3 ESE 11 13 6 7 1012.7 1012.6 0.0
23/02:30am 25.0 26.9 20.6 76 2.9 S 11 17 6 9 1012.6 - 0.0
23/02:00am 24.3 25.7 20.3 78 2.6 SE 13 15 7 8 1012.4 - 0.0
23/01:30am 25.1 27.0 20.5 75 3.0 S 11 20 6 11 1012.6 - 0.0
23/01:00am 25.0 26.6 20.7 77 2.8 SSE 13 17 7 9 1012.8 - 0.0
23/12:30am 25.4 27.2 20.3 73 3.3 S 11 17 6 9 1013.3 - 0.0
23/12:00am 25.5 27.0 20.6 74 3.2 S 13 17 7 9 1013.8 1013.7 0.0
 
Date/Time
EST
Temp
°C
App
Temp
°C
Dew
Point
Rel
Hum
%
Delta-T
°C
Wind Press
QNH
hPa
Press
MSL
hPa
Rain
since 9 am
mm
Dir
 
Spd
km/h
Gust
km/h
Spd
kts
Gust
kts
22/11:30pm 25.2 27.3 20.9 77 2.8 S 11 15 6 8 1014.2 - 0.0
22/11:00pm 25.8 27.5 20.9 74 3.2 S 13 15 7 8 1014.3 - 0.0
22/10:30pm 25.2 27.5 21.3 79 2.6 S 11 17 6 9 1014.3 - 0.0
22/10:00pm 25.5 27.8 21.4 78 2.7 S 11 15 6 8 1014.2 - 0.0
22/09:30pm 25.8 28.3 21.7 78 2.7 S 11 15 6 8 1013.8 - 0.0
22/09:00pm 25.9 28.1 21.9 78 2.7 SSE 13 19 7 10 1013.5 1013.4 0.0
22/08:30pm 26.2 31.3 26.2 100 0.0 S 11 19 6 10 1013.3 - 0.0
22/08:00pm 26.6 31.2 26.6 100 0.0 SE 15 19 8 10 1013.0 - 0.0
22/07:30pm 26.9 28.8 22.0 74 3.3 SE 15 19 8 10 1012.7 - 0.0
22/07:00pm 27.0 28.1 21.3 71 3.8 SE 17 20 9 11 1012.5 - 0.0
22/06:30pm 27.3 28.3 21.0 68 4.2 SE 17 20 9 11 1012.2 - 0.0
22/06:00pm 28.1 28.3 20.5 63 5.0 E 20 26 11 14 1012.0 1011.9 0.0
22/05:30pm 28.6 28.6 20.2 60 5.5 E 20 28 11 15 1011.7 - 0.0
22/05:00pm 29.5 29.3 20.6 58 5.9 ENE 22 30 12 16 1011.5 - 0.0
22/04:30pm 29.7 29.1 21.2 60 5.7 ENE 26 33 14 18 1011.2 - 0.0
22/04:00pm 30.1 30.3 22.1 62 5.4 NE 24 33 13 18 1011.2 - 0.0
22/03:30pm 31.1 30.5 21.3 56 6.6 NE 26 33 14 18 1011.2 - 0.0
22/03:00pm 31.0 30.6 21.0 55 6.7 NE 24 35 13 19 1011.3 1011.2 0.0
22/02:30pm 30.8 29.9 20.7 55 6.7 ENE 26 33 14 18 1011.6 - 0.0
22/02:00pm 31.2 30.6 20.5 53 7.1 ENE 24 33 13 18 1012.0 - 0.0
22/01:30pm 31.2 30.8 21.0 54 6.8 NE 24 33 13 18 1012.4 - 0.0
22/01:00pm 31.3 31.1 21.2 55 6.8 ENE 24 32 13 17 1012.7 - 0.0
22/12:30pm 30.5 31.0 21.9 60 5.8 ENE 22 30 12 16 1013.0 - 0.0
22/12:00pm 30.3 30.5 21.4 59 6.0 ENE 22 28 12 15 1013.1 1013.0 0.0
22/11:30am 30.0 30.7 21.5 60 5.7 NE 20 30 11 16 1013.3 - 0.0
22/11:00am 30.7 31.1 21.0 56 6.5 NE 20 28 11 15 1013.6 - 0.0
22/10:30am 30.5 30.9 19.8 52 7.0 NNE 17 19 9 10 1013.9 - 0.0
22/10:00am 29.9 31.1 19.8 54 6.6 E 13 17 7 9 1014.1 - 0.0
22/09:30am 29.9 31.4 19.8 54 6.6 SE 11 20 6 11 1014.3 - 0.0
22/09:00am 29.2 30.2 19.5 56 6.3 S 13 22 7 12 1014.5 1014.4 0.0
22/08:30am 27.8 27.8 18.9 58 5.7 SSE 17 20 9 11 1014.6 - 0.0
22/08:00am 27.4 28.0 19.4 61 5.2 SE 15 19 8 10 1014.4 - 0.0
22/07:30am 25.6 26.7 19.6 69 3.9 SE 13 15 7 8 1014.3 - 0.0
22/07:00am 24.2 27.4 20.5 80 2.4 WNW 4 7 2 4 1014.3 - 0.0
22/06:30am 23.9 25.1 19.9 78 2.6 SSE 13 15 7 8 1014.0 - 0.0
22/06:00am 22.7 23.5 19.9 84 1.8 SSE 15 19 8 10 1013.5 1013.4 0.0
22/05:30am 22.1 24.1 19.9 87 1.4 SSE 9 15 5 8 1013.1 - 0.0
22/05:00am 22.6 23.5 20.0 85 1.7 SE 15 19 8 10 1012.7 - 0.0
22/04:30am 23.0 23.5 20.1 84 1.9 SE 17 20 9 11 1012.7 - 0.0
22/04:00am 23.2 23.5 20.3 84 1.9 SE 19 19 10 10 1012.5 - 0.0
22/03:30am 22.8 25.5 20.6 87 1.4 WSW 7 7 4 4 1012.3 - 0.0
22/03:00am 23.0 25.2 20.5 86 1.6 SSE 9 11 5 6 1012.3 1012.2 0.0
22/02:30am 23.4 25.3 20.6 84 1.8 SE 11 13 6 7 1012.2 - 0.0
22/02:00am 23.4 25.3 20.5 84 1.9 SE 11 13 6 7 1012.4 - 0.0
22/01:30am 23.9 25.7 20.4 81 2.3 SE 11 13 6 7 1012.7 - 0.0
22/01:00am 24.4 27.1 20.2 77 2.7 S 6 9 3 5 1012.9 - 0.0
22/12:30am 24.9 27.0 20.1 74 3.1 S 9 13 5 7 1013.2 - 0.0
22/12:00am 24.9 27.1 20.5 76 2.9 S 9 15 5 8 1013.6 1013.5 0.0
 
Date/Time
EST
Temp
°C
App
Temp
°C
Dew
Point
Rel
Hum
%
Delta-T
°C
Wind Press
QNH
hPa
Press
MSL
hPa
Rain
since 9 am
mm
Dir
 
Spd
km/h
Gust
km/h
Spd
kts
Gust
kts
21/11:30pm 25.2 26.6 20.4 74 3.1 ESE 13 15 7 8 1013.6 - 0.0
21/11:00pm 25.6 27.2 20.7 74 3.2 ESE 13 17 7 9 1013.9 - 0.0
21/10:30pm 25.2 26.9 20.9 77 2.8 SE 13 15 7 8 1014.3 - 0.0
21/10:00pm 25.6 27.3 20.9 75 3.1 ESE 13 17 7 9 1014.3 - 0.0
21/09:30pm 26.0 27.5 20.5 71 3.6 ESE 13 17 7 9 1013.9 - 0.0
21/09:00pm 26.2 27.4 20.6 71 3.7 ESE 15 20 8 11 1013.4 1013.3 0.0
21/08:30pm 26.2 27.6 20.4 70 3.8 ESE 13 17 7 9 1013.1 - 0.0
21/08:00pm 26.5 28.0 20.6 70 3.9 E 13 19 7 10 1012.6 - 0.0
21/07:30pm 26.6 27.7 20.5 69 4.0 E 15 22 8 12 1012.4 - 0.0
21/07:00pm 26.8 27.0 20.2 67 4.3 E 19 26 10 14 1012.1 - 0.0
21/06:30pm 26.9 27.2 20.5 68 4.2 ENE 19 24 10 13 1011.8 - 0.0
21/06:00pm 27.4 27.8 20.9 67 4.3 E 20 30 11 16 1011.4 1011.3 0.0
21/05:30pm 27.7 28.2 21.1 67 4.4 ENE 20 28 11 15 1011.2 - 0.0
21/05:00pm 28.4 28.5 21.2 65 4.8 ENE 22 30 12 16 1011.0 - 0.0
21/04:30pm 29.1 29.3 21.3 62 5.2 ENE 22 30 12 16 1011.0 - 0.0
21/04:00pm 29.3 29.4 21.2 61 5.4 NE 22 32 12 17 1011.0 - 0.0
21/03:30pm 30.3 29.6 21.0 57 6.2 ENE 26 33 14 18 1011.0 - 0.0

Other Formats:

Comma delimited format used in spreadsheet applications
http://www.bom.gov.au/fwo/IDQ60801/IDQ60801.94287.axf

JavaScript Object Notation format (JSON) in row-major order
http://www.bom.gov.au/fwo/IDQ60801/IDQ60801.94287.json